Capitol Logistics 303


PGUM
Guam International Airport
Guam, GU
PHNL
Daniel K Inouye International Airport
Honolulu, US

Activity Log

Date Flight Route Aircraft Duration
09/12/2019 CPX303 DEWSS A450 JIMOS A450 NGUEN A450 BRIUN NONNI BOOKE BOOKE8 B763 7h 46m

Route Details

Aircraft Information
Primary: Boeing 767-300BDSF
Backup: Not Available
Route Data
Distance: 3303nm
Sched. Duration: 6h 50m
Avg. Duration: 7h 46m (+96m)
Times Flown: 1
Recm'd Route: DEWSS A450 JIMOS A450 NGUEN A450 BRIUN NONNI BOOKE BOOKE8
Planned Altitude: 33,000ft
Origin Wx: PGUM 250954Z 09005KT 10SM FEW046 26/24 A2986 RMK AO2 RAB35E48 SLP102 P0000 T02560239
Dest. Wx: PHNL 250953Z VRB03KT 10SM FEW025 23/21 A2996 RMK AO2 SLP146 T02280206 403000206 $
Notes:

Financial History
Total Freight: 53,844lbs
Average Load: 53,844lbs/flt
Fuel Used: 73,288lbs
Avg. Fuel Used: 73,288lbs/flt
Fuel Expense: $58,630
Avg. Fuel Expense: $58,630
Avg. Fuel Cost: $0.80/lbs
Total Gross Income: $96,381
Pilot Pay: $149
Total Expenses: $10,461
Total Revenue: $25,511
Average Revenue: $96,380.76